Metar Cercanos

 

LEPA - Palma De Mallorc, Spain
Distance from station: ONO 38km
Actualización: 22/10/2018 16:00
Few Clouds
Few Clouds
 Viento del ENE
Viento: ENE 30 km/h
Temperatura: 24°C
Rocío: 14°C
Humedad: 54%
Barómetro: 1019 hPa
Clouds: Few Clouds
Visibility: 10 km
Cloud details: Few Clouds 671 m
2018/10/22 14:00 LEPA 221400Z 07016KT 040V100 9999 FEW022 24/14 Q1019 NOSIG
LEMH - Mahon/Menorca Is, Spain
Distance from station: ENE 105km
Actualización: 22/10/2018 16:00
Few Clouds
Few Clouds
 Viento del NE
Viento: NE 26 km/h
Temperatura: 21°C
Rocío: 15°C
Humedad: 69%
Barómetro: 1019 hPa
Clouds: Few Clouds
Visibility: 10 km
Cloud details: Few Clouds 762 m
2018/10/22 14:00 LEMH 221400Z 04014KT 9999 FEW025 21/15 Q1019
 
LEIB - Ibiza/Es Codola, Spain
Distance from station: OSO 165km
Actualización: 22/10/2018 16:00
Few Clouds
Few Clouds
 Viento del NNE
Viento: NNE 17 km/h
Temperatura: 24°C
Rocío: 16°C
Humedad: 61%
Barómetro: 1019 hPa
Clouds: Few Clouds
Visibility: 10 km
Cloud details: Few Clouds 1067 m
2018/10/22 14:00 LEIB 221400Z 02009KT 350V070 9999 FEW035 24/16 Q1019 NOSIG
LEBL - Barcelona Airpor, Spain
Distance from station: NNO 225km
Actualización: 22/10/2018 16:00
Parcialmente nuboso
Parcialmente nuboso
 Viento del E
Viento: E 17 km/h
Temperatura: 21°C
Rocío: 15°C
Humedad: 69%
Barómetro: 1021 hPa
Clouds: Parcialmente nuboso
Visibility: 10 km
Cloud details: Parcialmente nuboso 1463 m
2018/10/22 14:00 LEBL 221400Z 10009KT 9999 SCT048 21/15 Q1021 NOSIG
 
LEVC - Valencia (civ/Mi, Spain
Distance from station: NO 188km
Actualización: 22/10/2018 16:00
Muy nuboso
Muy nuboso
 Viento del ENE
Viento: ENE 20 km/h
Temperatura: 23°C
Rocío: 17°C
Humedad: 69%
Barómetro: 1021 hPa
Clouds: Muy nuboso
Visibility: 10 km
Cloud details: Muy nuboso 610 m
2018/10/22 14:00 LEVC 221400Z 07011KT 040V130 9999 BKN020 23/17 Q1021 NOSIG
LEGE - Gerona/Costa Bra, Spain
Distance from station: N 276km
Actualización: 22/10/2018 16:00
Parcialmente nuboso
Parcialmente nuboso
 Viento del E
Viento: E 11 km/h
Temperatura: 21°C
Rocío: 14°C
Humedad: 64%
Barómetro: 1021 hPa
Clouds: Parcialmente nuboso
Visibility: 10 km
Cloud details: Parcialmente nuboso 884 m
2018/10/22 14:00 LEGE 221400Z 10006KT 050V120 9999 SCT029 21/14 Q1021
 
LEAL - Alicante/El Alte, Spain
Distance from station: OSO 344km
Actualización: 22/10/2018 16:00
Despejado
Despejado
 Viento del E
Viento: E 13 km/h
Temperatura: 23°C
Rocío: 17°C
Humedad: 69%
Barómetro: 1019 hPa
Resumen: Despejado
Visibility: greater than 10 km
2018/10/22 14:00 LEAL 221400Z 10007KT 070V130 CAVOK 23/17 Q1019 NOSIG
LEAM - Almeria Airport, Spain
Distance from station: SSO 56km
Actualización: 22/10/2018 16:00
Few Clouds
Few Clouds
 Viento del S
Viento: S 11 km/h
Temperatura: 24°C
Rocío: 18°C
Humedad: 69%
Barómetro: 1019 hPa
Clouds: Few Clouds
Visibility: 10 km
Cloud details: Few Clouds 457 m
2018/10/22 14:00 LEAM 221400Z 18006KT 150V220 9999 FEW015 24/18 Q1019
 
LEZG - Zaragoza (mil/Ci, Spain
Distance from station: NO 431km
Actualización: 22/10/2018 16:00
Despejado
Despejado
 Viento del ONO
Viento: ONO 31 km/h
Temperatura: 22°C
Rocío: 8°C
Humedad: 41%
Barómetro: 1022 hPa
Resumen: Despejado
Visibility: greater than 10 km
2018/10/22 14:00 LEZG 221400Z 30017KT CAVOK 22/08 Q1022
LEMD - Madrid/Barajas, Spain
Distance from station: ONO 234km
Actualización: 22/10/2018 16:00
Few Clouds
Few Clouds
 Viento del NNE
Viento: NNE 4 km/h
Temperatura: 23°C
Rocío: 12°C
Humedad: 50%
Barómetro: 1021 hPa
Clouds: Few Clouds
Visibility: 10 km
Cloud details: Few Clouds 1372 m
2018/10/22 14:00 LEMD 221400Z 02002KT 9999 FEW045 23/12 Q1021 NOSIG
 
LEGR - Granada Airport, Spain
Distance from station: OSO 62km
Actualización: 22/10/2018 16:00
Few Clouds
Few Clouds
 Viento del varies
Viento: varies 2 km/h
Temperatura: 23°C
Rocío: 13°C
Humedad: 53%
Barómetro: 1020 hPa
Clouds: Few Clouds
Visibility: 10 km
Cloud details: Few Clouds 1219 m
2018/10/22 14:00 LEGR 221400Z VRB01KT 9999 FEW040 23/13 Q1020
LEMG - Malaga (civ/Mil), Spain
Distance from station: OSO 227km
Actualización: 22/10/2018 16:00
Few Clouds
Few Clouds
 Viento del SE
Viento: SE 11 km/h
Temperatura: 23°C
Rocío: 17°C
Humedad: 69%
Barómetro: 1019 hPa
Clouds: Few Clouds
Visibility: 10 km
Cloud details: Few Clouds 914 m
2018/10/22 14:00 LEMG 221400Z 13006KT 090V190 9999 FEW030 23/17 Q1019 NOSIG
 
LEZL - Sevilla (civ/Mil, Spain
Distance from station: S 318km
Actualización: 22/10/2018 16:00
Few Clouds
Few Clouds
 Viento del NNE
Viento: NNE 11 km/h
Temperatura: 25°C
Rocío: 16°C
Humedad: 57%
Barómetro: 1018 hPa
Clouds: Few Clouds
Visibility: 10 km
Cloud details: Few Clouds 1067 m
2018/10/22 14:00 LEZL 221400Z 03006KT 350V070 9999 FEW035 25/16 Q1018 NOSIG
LEVT - Vitoria, Spain
Distance from station: NO 226km
Actualización: 22/10/2018 16:00
Few Clouds
Few Clouds
 Viento del NNE
Viento: NNE 24 km/h
Temperatura: 17°C
Rocío: 5°C
Humedad: 45%
Barómetro: 1027 hPa
Clouds: Few Clouds
Visibility: 10 km
Cloud details: Few Clouds 975 m
2018/10/22 14:00 LEVT 221400Z 02013KT 350V050 9999 FEW032 17/05 Q1027
 
LEBB - Bilbao/Sondica, Spain
Distance from station: NNO 235km
Actualización: 22/10/2018 16:00
Parcialmente nuboso
Parcialmente nuboso
 Viento del NNO
Viento: NNO 15 km/h
Temperatura: 19°C
Rocío: 12°C
Humedad: 64%
Barómetro: 1028 hPa
Clouds: Parcialmente nuboso
Visibility: 10 km
Cloud details: Parcialmente nuboso 914 m
2018/10/22 14:00 LEBB 221400Z 33008KT 280V020 9999 SCT030 19/12 Q1028 NOSIG
LESO - San Sebastian/Fu, Spain
Distance from station: N 231km
Actualización: 22/10/2018 16:00
Parcialmente nuboso
Parcialmente nuboso
 Viento del ONO
Viento: ONO 11 km/h
Temperatura: 17°C
Rocío: 11°C
Humedad: 68%
Barómetro: 1027 hPa
Clouds: Parcialmente nuboso
Visibility: 10 km
Cloud details: Parcialmente nuboso 762 m
2018/10/22 14:00 LESO 221400Z 30006KT 240V030 9999 SCT025 17/11 Q1027
 
LEVD - Valladolid(Mil/C, Spain
Distance from station: ONO 239km
Actualización: 22/10/2018 16:00
Despejado
Despejado
 Viento del NE
Viento: NE 35 km/h
Temperatura: 19°C
Rocío: 2°C
Humedad: 32%
Barómetro: 1024 hPa
Resumen: Despejado
Visibility: greater than 10 km
2018/10/22 14:00 LEVD 221400Z 05019KT CAVOK 19/02 Q1024
LESA - Salamanca (civ/M, Spain
Distance from station: ONO 349km
Actualización: 22/10/2018 16:00
Despejado
Despejado
 Viento del ENE
Viento: ENE 19 km/h
Temperatura: 20°C
Rocío: 6°C
Humedad: 40%
Barómetro: 1023 hPa
Resumen: Despejado
Visibility: greater than 10 km
2018/10/22 14:00 LESA 221400Z 07010KT 030V100 CAVOK 20/06 Q1023
 
LEXJ - Santander/Paraya, Spain
Distance from station: NNO 247km
Actualización: 22/10/2018 16:00
Few Clouds
Few Clouds
 Viento del NE
Viento: NE 11 km/h
Temperatura: 19°C
Rocío: 14°C
Humedad: 73%
Barómetro: 1028 hPa
Clouds: Few Clouds
Visibility: 9 km
Cloud details: Few Clouds 701 m
2018/10/22 14:00 LEXJ 221400Z 05006KT 360V080 9000 FEW023 19/14 Q1028
LEAS - Asturias/Aviles, Spain
Distance from station: NO 214km
Actualización: 22/10/2018 16:00
Muy nuboso
Muy nuboso
 Viento del ENE
Viento: ENE 15 km/h
Temperatura: 18°C
Rocío: 14°C
Humedad: 78%
Barómetro: 1029 hPa
Clouds: Muy nuboso
Visibility: 10 km
Cloud details: Few Clouds 610 m
Muy nuboso 1768 m
2018/10/22 14:00 LEAS 221400Z 06008KT 030V110 9999 FEW020 BKN058 18/14 Q1029 NOSIG
 
LECO - La Coruna/Alvedr, Spain
Distance from station: ONO 222km
Actualización: 22/10/2018 16:00
Despejado
Despejado
 Viento del ENE
Viento: ENE 24 km/h
Temperatura: 22°C
Rocío: 11°C
Humedad: 50%
Barómetro: 1026 hPa
Resumen: Despejado
Visibility: greater than 10 km
2018/10/22 14:00 LECO 221400Z 06013KT 020V100 CAVOK 22/11 Q1026 NOSIG
LEVX - Vigo/Peinador, Spain
Distance from station: O 214km
Actualización: 22/10/2018 16:00
Few Clouds
Few Clouds
 Viento del SE
Viento: SE 6 km/h
Temperatura: 24°C
Rocío: 16°C
Humedad: 61%
Barómetro: 1023 hPa
Clouds: Few Clouds
Visibility: 10 km
Cloud details: Few Clouds 914 m
2018/10/22 14:00 LEVX 221400Z 13003KT 080V160 9999 FEW030 24/16 Q1023 NOSIG